createdAt,value
2019-01-05T00:00:05.411Z,100902.02
2019-01-05T00:02:54.847Z,100902.52
2019-01-05T00:05:59.112Z,100894.73
2019-01-05T00:08:43.680Z,100897.09
2019-01-05T00:11:31.494Z,100890.14
2019-01-05T00:14:39.133Z,100896.04
2019-01-05T00:17:37.825Z,100898.26
2019-01-05T00:20:22.121Z,100883.72
2019-01-05T00:23:31.557Z,100880.69
2019-01-05T00:26:21.017Z,100878.47
2019-01-05T00:29:09.261Z,100875.25
2019-01-05T00:32:06.123Z,100866.88
2019-01-05T00:35:06.190Z,100860.08
2019-01-05T00:37:57.770Z,100854.49
2019-01-05T00:40:53.089Z,100844.32
2019-01-05T00:43:51.992Z,100848.76
2019-01-05T00:46:41.002Z,100842.45
2019-01-05T00:49:43.532Z,100847.16
2019-01-05T00:52:36.748Z,100839.28
2019-01-05T00:55:25.049Z,100837.16
2019-01-05T00:58:27.029Z,100834.13
2019-01-05T01:01:15.372Z,100833.70
2019-01-05T01:04:01.868Z,100827.07
2019-01-05T01:06:49.904Z,100820.26
2019-01-05T01:09:48.221Z,100814.48
2019-01-05T01:12:37.766Z,100813.73
2019-01-05T01:15:25.899Z,100816.43
2019-01-05T01:18:30.732Z,100803.88
2019-01-05T01:21:23.373Z,100810.13
2019-01-05T01:24:16.093Z,100797.84
2019-01-05T01:26:58.642Z,100798.34
2019-01-05T01:29:57.691Z,100798.14
2019-01-05T01:32:47.096Z,100802.32
2019-01-05T01:35:54.665Z,100792.27
2019-01-05T01:39:05.709Z,100779.37
2019-01-05T01:41:58.360Z,100783.73
2019-01-05T01:44:46.548Z,100783.35
2019-01-05T01:47:39.845Z,100778.98
2019-01-05T01:50:28.125Z,100777.50
2019-01-05T01:53:18.123Z,100775.77
2019-01-05T01:56:17.667Z,100758.51
2019-01-05T01:59:07.540Z,100754.34
2019-01-05T02:02:04.736Z,100755.48
2019-01-05T02:04:52.822Z,100754.16
2019-01-05T02:07:44.115Z,100741.83
2019-01-05T02:10:46.477Z,100745.47
2019-01-05T02:13:44.651Z,100733.78
2019-01-05T02:16:35.568Z,100729.72
2019-01-05T02:19:39.366Z,100729.98
2019-01-05T02:22:59.989Z,100727.41
2019-01-05T02:26:40.871Z,100728.30
2019-01-05T02:30:01.251Z,100724.95
2019-01-05T02:33:45.916Z,100721.14
2019-01-05T02:37:07.568Z,100723.68
2019-01-05T02:40:54.875Z,100714.45
2019-01-05T02:44:17.613Z,100716.13
2019-01-05T02:48:04.516Z,100708.77
2019-01-05T02:51:25.771Z,100715.28
2019-01-05T02:54:49.192Z,100704.92
2019-01-05T02:58:13.622Z,100694.16
2019-01-05T03:01:43.410Z,100682.67
2019-01-05T03:05:12.739Z,100676.41
2019-01-05T03:08:54.926Z,100672.56
2019-01-05T03:12:26.799Z,100662.18
2019-01-05T03:15:49.886Z,100643.36
2019-01-05T03:19:22.758Z,100637.65
2019-01-05T03:22:58.504Z,100629.48
2019-01-05T03:26:42.842Z,100624.07
2019-01-05T03:30:25.792Z,100614.40
2019-01-05T03:34:08.417Z,100612.98
2019-01-05T03:37:56.264Z,100604.52
2019-01-05T03:41:36.595Z,100598.14
2019-01-05T03:45:16.611Z,100593.78
2019-01-05T03:49:19.835Z,100584.25
2019-01-05T03:52:53.326Z,100584.62
2019-01-05T03:56:47.072Z,100574.95
2019-01-05T04:00:08.937Z,100577.77
2019-01-05T04:03:32.553Z,100563.75
2019-01-05T04:07:07.454Z,100567.85
2019-01-05T04:10:33.493Z,100562.67
2019-01-05T04:14:11.095Z,100549.02
2019-01-05T04:17:50.382Z,100546.61
2019-01-05T04:21:21.671Z,100536.73
2019-01-05T04:24:30.545Z,100534.58
2019-01-05T04:27:52.711Z,100529.72
2019-01-05T04:31:36.794Z,100531.55
2019-01-05T04:35:11.940Z,100525.49
2019-01-05T04:38:36.102Z,100535.29
2019-01-05T04:42:23.780Z,100544.34
2019-01-05T04:46:08.376Z,100521.30
2019-01-05T04:49:28.490Z,100529.60
2019-01-05T04:52:43.004Z,100526.61
2019-01-05T04:56:24.034Z,100520.92
2019-01-05T04:59:56.446Z,100514.66
2019-01-05T05:03:23.974Z,100535.33
2019-01-05T05:07:03.847Z,100534.83
2019-01-05T05:10:51.901Z,100532.88
2019-01-05T05:14:30.833Z,100524.08
2019-01-05T05:18:02.957Z,100537.61
2019-01-05T05:21:28.910Z,100532.80
2019-01-05T05:24:59.386Z,100545.00
2019-01-05T05:28:51.690Z,100528.44
2019-01-05T05:32:19.381Z,100533.75
2019-01-05T05:35:36.458Z,100531.83
2019-01-05T05:39:20.327Z,100526.77
2019-01-05T05:43:02.450Z,100526.98
2019-01-05T05:46:46.264Z,100517.22
2019-01-05T05:50:16.434Z,100524.20
2019-01-05T05:53:52.213Z,100517.56
2019-01-05T05:57:35.950Z,100525.53
2019-01-05T06:01:30.217Z,100534.24
2019-01-05T06:05:16.994Z,100528.34
2019-01-05T06:08:33.163Z,100520.00
2019-01-05T06:12:13.397Z,100524.70
2019-01-05T06:16:10.918Z,100523.12
2019-01-05T06:19:47.441Z,100521.45
2019-01-05T06:23:21.612Z,100524.94
2019-01-05T06:26:54.295Z,100521.32
2019-01-05T06:30:01.918Z,100520.83
2019-01-05T06:33:38.272Z,100517.09
2019-01-05T06:37:44.719Z,100527.84
2019-01-05T06:41:11.230Z,100534.61
2019-01-05T06:44:43.877Z,100524.57
2019-01-05T06:48:40.078Z,100518.67
2019-01-05T06:52:17.739Z,100525.31
2019-01-05T06:55:35.474Z,100526.64
2019-01-05T06:59:06.189Z,100525.31
2019-01-05T07:02:54.731Z,100532.33
2019-01-05T07:06:31.308Z,100534.12
2019-01-05T07:09:56.328Z,100543.20
2019-01-05T07:13:17.510Z,100542.73
2019-01-05T07:16:55.430Z,100544.52
2019-01-05T07:20:29.002Z,100544.52
2019-01-05T07:23:45.841Z,100556.64
2019-01-05T07:27:13.516Z,100565.32
2019-01-05T07:30:44.407Z,100583.84
2019-01-05T07:34:17.459Z,100596.64
2019-01-05T07:37:47.210Z,100588.04
2019-01-05T07:41:43.510Z,100596.41
2019-01-05T07:45:30.754Z,100598.45
2019-01-05T07:48:55.357Z,100610.30
2019-01-05T07:52:18.477Z,100612.95
2019-01-05T07:55:33.598Z,100615.74
2019-01-05T07:58:58.957Z,100618.27
2019-01-05T08:02:42.868Z,100615.03
2019-01-05T08:06:04.383Z,100605.48
2019-01-05T08:09:54.361Z,100608.25
2019-01-05T08:13:37.497Z,100623.25
2019-01-05T08:17:22.482Z,100620.47
2019-01-05T08:20:47.297Z,100631.94
2019-01-05T08:24:10.067Z,100630.36
2019-01-05T08:27:39.921Z,100636.42
2019-01-05T08:31:12.883Z,100632.68
2019-01-05T08:34:43.331Z,100631.35
2019-01-05T08:38:23.898Z,100631.94
2019-01-05T08:41:44.944Z,100633.77
2019-01-05T08:45:19.923Z,100638.84
2019-01-05T08:49:09.687Z,100636.77
2019-01-05T08:52:19.075Z,100635.68
2019-01-05T08:56:14.481Z,100639.58
2019-01-05T08:59:34.799Z,100643.56
2019-01-05T09:03:36.837Z,100647.44
2019-01-05T09:07:18.849Z,100659.65
2019-01-05T09:10:59.723Z,100659.03
2019-01-05T09:14:40.928Z,100656.73
2019-01-05T09:17:56.453Z,100651.30
2019-01-05T09:21:31.028Z,100665.92
2019-01-05T09:25:11.729Z,100662.43
2019-01-05T09:28:38.937Z,100657.48
2019-01-05T09:32:04.699Z,100662.91
2019-01-05T09:35:34.977Z,100665.70
2019-01-05T09:38:58.405Z,100666.29
2019-01-05T09:42:35.956Z,100662.67
2019-01-05T09:46:00.149Z,100662.42
2019-01-05T09:49:37.749Z,100662.67
2019-01-05T09:53:18.309Z,100663.41
2019-01-05T09:57:18.765Z,100666.41
2019-01-05T10:00:56.634Z,100661.22
2019-01-05T10:04:43.077Z,100669.94
2019-01-05T10:08:38.916Z,100672.70
2019-01-05T10:12:18.919Z,100679.22
2019-01-05T10:15:42.961Z,100684.58
2019-01-05T10:18:54.758Z,100686.24
2019-01-05T10:22:15.609Z,100685.41
2019-01-05T10:25:49.060Z,100684.20
2019-01-05T10:29:14.698Z,100686.36
2019-01-05T10:32:44.932Z,100687.35
2019-01-05T10:36:11.332Z,100692.92
2019-01-05T10:39:36.352Z,100696.79
2019-01-05T10:43:17.496Z,100699.91
2019-01-05T10:46:50.778Z,100703.91
2019-01-05T10:50:37.069Z,100695.34
2019-01-05T10:54:13.377Z,100693.63
2019-01-05T10:57:51.418Z,100694.73
2019-01-05T11:01:31.730Z,100693.63
2019-01-05T11:04:57.198Z,100690.01
2019-01-05T11:08:46.709Z,100682.05
2019-01-05T11:12:34.447Z,100682.30
2019-01-05T11:16:21.087Z,100678.64
2019-01-05T11:19:57.892Z,100679.25
2019-01-05T11:23:29.150Z,100679.38
2019-01-05T11:26:56.375Z,100676.84
2019-01-05T11:30:43.483Z,100676.58
2019-01-05T11:34:26.157Z,100670.44
2019-01-05T11:38:07.132Z,100668.72
2019-01-05T11:41:40.448Z,100663.15
2019-01-05T11:45:13.157Z,100657.47
2019-01-05T11:48:34.813Z,100661.60
2019-01-05T11:52:01.352Z,100662.94
2019-01-05T11:55:28.489Z,100659.64
2019-01-05T11:58:57.310Z,100661.94
2019-01-05T12:02:28.734Z,100659.28
2019-01-05T12:05:44.841Z,100657.22
2019-01-05T12:09:34.547Z,100652.48
2019-01-05T12:13:22.840Z,100648.77
2019-01-05T12:16:40.921Z,100647.91
2019-01-05T12:20:12.953Z,100652.25
2019-01-05T12:23:45.222Z,100651.43
2019-01-05T12:27:18.398Z,100663.98
2019-01-05T12:30:41.577Z,100661.82
2019-01-05T12:34:16.658Z,100655.29
2019-01-05T12:37:52.198Z,100664.84
2019-01-05T12:41:26.416Z,100663.52
2019-01-05T12:44:57.031Z,100662.30
2019-01-05T12:48:45.314Z,100667.87
2019-01-05T12:52:09.692Z,100663.65
2019-01-05T12:55:32.954Z,100667.14
2019-01-05T12:59:02.703Z,100662.20
2019-01-05T13:02:25.897Z,100667.86
2019-01-05T13:06:11.599Z,100668.23
2019-01-05T13:09:46.565Z,100665.59
2019-01-05T13:13:23.035Z,100672.48
2019-01-05T13:16:59.378Z,100680.84
2019-01-05T13:20:31.336Z,100687.25
2019-01-05T13:24:03.499Z,100689.29
2019-01-05T13:27:31.611Z,100696.20
2019-01-05T13:30:55.497Z,100693.04
2019-01-05T13:34:46.084Z,100698.00
2019-01-05T13:38:15.555Z,100696.20
2019-01-05T13:41:40.145Z,100697.28
2019-01-05T13:45:06.629Z,100693.15
2019-01-05T13:48:34.703Z,100688.70
2019-01-05T13:51:47.378Z,100686.65
2019-01-05T13:54:38.071Z,100694.39
2019-01-05T13:57:29.737Z,100705.50
2019-01-05T14:00:28.041Z,100698.63
2019-01-05T14:03:29.288Z,100717.25
2019-01-05T14:06:33.876Z,100720.88
2019-01-05T14:09:30.637Z,100725.70
2019-01-05T14:12:15.283Z,100722.42
2019-01-05T14:15:10.549Z,100718.59
2019-01-05T14:17:58.345Z,100719.89
2019-01-05T14:21:06.002Z,100731.03
2019-01-05T14:24:10.929Z,100719.67
2019-01-05T14:26:58.490Z,100725.45
2019-01-05T14:29:46.597Z,100721.97
2019-01-05T14:32:36.504Z,100717.61
2019-01-05T14:35:24.725Z,100722.06
2019-01-05T14:38:19.920Z,100724.60
2019-01-05T14:41:09.328Z,100725.93
2019-01-05T14:44:01.503Z,100722.06
2019-01-05T14:46:50.130Z,100723.02
2019-01-05T14:49:51.106Z,100719.65
2019-01-05T14:52:43.404Z,100724.02
2019-01-05T14:55:31.537Z,100731.25
2019-01-05T14:58:27.440Z,100737.44
2019-01-05T15:01:31.977Z,100746.63
2019-01-05T15:04:20.184Z,100746.97
2019-01-05T15:07:27.526Z,100749.05
2019-01-05T15:10:23.067Z,100746.14
2019-01-05T15:13:12.357Z,100749.75
2019-01-05T15:16:05.551Z,100753.62
2019-01-05T15:18:53.670Z,100757.48
2019-01-05T15:21:41.728Z,100747.55
2019-01-05T15:24:31.136Z,100744.43
2019-01-05T15:27:29.976Z,100738.73
2019-01-05T15:30:30.140Z,100735.95
2019-01-05T15:33:34.802Z,100748.80
2019-01-05T15:36:30.042Z,100752.41
2019-01-05T15:39:37.705Z,100754.33
2019-01-05T15:42:26.000Z,100754.70
2019-01-05T15:45:15.417Z,100753.13
2019-01-05T15:48:20.112Z,100751.30
2019-01-05T15:51:17.929Z,100748.77
2019-01-05T15:54:06.030Z,100759.65
2019-01-05T15:57:08.005Z,100772.70
2019-01-05T15:59:56.297Z,100780.44
2019-01-05T16:02:50.087Z,100784.09
2019-01-05T16:05:45.219Z,100788.41
2019-01-05T16:08:53.175Z,100791.70
2019-01-05T16:11:52.170Z,100798.11
2019-01-05T16:14:40.377Z,100796.44
2019-01-05T16:17:47.787Z,100806.09
2019-01-05T16:20:35.703Z,100805.50
2019-01-05T16:23:40.498Z,100813.81
2019-01-05T16:26:35.426Z,100816.01
2019-01-05T16:29:28.518Z,100821.91
2019-01-05T16:32:22.138Z,100812.48
2019-01-05T16:35:20.787Z,100818.55
2019-01-05T16:38:12.963Z,100827.11
2019-01-05T16:41:00.734Z,100818.76
2019-01-05T16:43:59.757Z,100822.03
2019-01-05T16:46:48.123Z,100829.64
2019-01-05T16:49:40.811Z,100828.31
2019-01-05T16:52:35.967Z,100823.73
2019-01-05T16:55:23.817Z,100833.25
2019-01-05T16:58:28.170Z,100823.23
2019-01-05T17:01:32.516Z,100825.77
2019-01-05T17:04:30.736Z,100820.33
2019-01-05T17:07:18.757Z,100813.30
2019-01-05T17:10:11.381Z,100814.74
2019-01-05T17:13:06.289Z,100814.75
2019-01-05T17:16:04.712Z,100814.75
2019-01-05T17:18:54.110Z,100818.76
2019-01-05T17:21:49.288Z,100824.06
2019-01-05T17:24:53.757Z,100821.65
2019-01-05T17:27:46.007Z,100822.34
2019-01-05T17:30:34.064Z,100831.09
2019-01-05T17:33:21.898Z,100825.28
2019-01-05T17:36:24.024Z,100819.36
2019-01-05T17:39:14.064Z,100830.00
2019-01-05T17:42:06.512Z,100827.43
2019-01-05T17:45:04.854Z,100835.78
2019-01-05T17:47:52.981Z,100832.54
2019-01-05T17:50:40.743Z,100839.66
2019-01-05T17:53:35.548Z,100843.51
2019-01-05T17:56:29.036Z,100842.43
2019-01-05T17:59:24.370Z,100842.88
2019-01-05T18:02:12.604Z,100844.95
2019-01-05T18:05:00.677Z,100852.11
2019-01-05T18:07:52.858Z,100844.14
2019-01-05T18:10:41.107Z,100849.45
2019-01-05T18:13:33.830Z,100848.11
2019-01-05T18:16:21.906Z,100846.66
2019-01-05T18:19:10.201Z,100849.06
2019-01-05T18:22:08.573Z,100854.01
2019-01-05T18:24:56.636Z,100851.23
2019-01-05T18:27:44.632Z,100849.20
2019-01-05T18:30:34.653Z,100859.84
2019-01-05T18:33:33.399Z,100855.85
2019-01-05T18:36:28.938Z,100862.73
2019-01-05T18:39:27.782Z,100865.48
2019-01-05T18:42:32.039Z,100869.12
2019-01-05T18:45:28.024Z,100860.52
2019-01-05T18:48:17.767Z,100868.13
2019-01-05T18:51:13.979Z,100869.47
2019-01-05T18:54:18.480Z,100868.99
2019-01-05T18:57:20.222Z,100867.29
2019-01-05T19:00:18.827Z,100864.63
2019-01-05T19:03:06.835Z,100862.59
2019-01-05T19:06:02.069Z,100864.95
2019-01-05T19:08:50.690Z,100867.05
2019-01-05T19:11:55.235Z,100873.12
2019-01-05T19:14:45.004Z,100871.53
2019-01-05T19:17:46.720Z,100875.38
2019-01-05T19:20:36.166Z,100874.52
2019-01-05T19:23:34.489Z,100879.02
2019-01-05T19:26:39.474Z,100886.42
2019-01-05T19:29:43.984Z,100885.27
2019-01-05T19:32:48.633Z,100888.19
2019-01-05T19:35:38.013Z,100887.61
2019-01-05T19:38:26.336Z,100891.22
2019-01-05T19:41:27.885Z,100894.34
2019-01-05T19:44:31.974Z,100896.66
2019-01-05T19:47:20.046Z,100897.12
2019-01-05T19:50:08.419Z,100891.80
2019-01-05T19:53:16.367Z,100898.42
2019-01-05T19:56:04.192Z,100896.26
2019-01-05T19:59:02.613Z,100896.84
2019-01-05T20:01:49.778Z,100893.25
2019-01-05T20:04:42.160Z,100895.88
2019-01-05T20:07:46.561Z,100893.34
2019-01-05T20:10:34.824Z,100895.07
2019-01-05T20:13:24.261Z,100887.09
2019-01-05T20:16:22.703Z,100895.65
2019-01-05T20:19:23.504Z,100896.58
2019-01-05T20:22:23.184Z,100899.50
2019-01-05T20:25:27.691Z,100903.45
2019-01-05T20:28:35.656Z,100896.09
2019-01-05T20:31:37.034Z,100895.13
2019-01-05T20:34:24.840Z,100902.64
2019-01-05T20:37:13.281Z,100902.39
2019-01-05T20:39:53.934Z,100902.84
2019-01-05T20:42:49.756Z,100909.84
2019-01-05T20:45:37.596Z,100908.16
2019-01-05T20:48:23.972Z,100912.53
2019-01-05T20:51:22.498Z,100913.98
2019-01-05T20:54:30.166Z,100914.50
2019-01-05T20:57:25.628Z,100910.36
2019-01-05T21:00:13.637Z,100907.45
2019-01-05T21:03:01.669Z,100908.40
2019-01-05T21:06:07.036Z,100909.44
2019-01-05T21:08:55.204Z,100906.92
2019-01-05T21:11:44.634Z,100906.29
2019-01-05T21:14:49.458Z,100908.45
2019-01-05T21:17:37.531Z,100903.34
2019-01-05T21:20:45.031Z,100894.41
2019-01-05T21:23:33.878Z,100893.43
2019-01-05T21:26:24.654Z,100895.13
2019-01-05T21:29:11.996Z,100899.35
2019-01-05T21:32:07.897Z,100902.81
2019-01-05T21:35:03.231Z,100911.45
2019-01-05T21:37:55.369Z,100912.12
2019-01-05T21:40:56.650Z,100920.50
2019-01-05T21:44:01.646Z,100924.23
2019-01-05T21:46:58.986Z,100925.17
2019-01-05T21:49:54.319Z,100928.85
2019-01-05T21:52:46.808Z,100933.30
2019-01-05T21:55:34.834Z,100930.98
2019-01-05T21:58:27.700Z,100937.89
2019-01-05T22:01:15.522Z,100943.06
2019-01-05T22:04:03.615Z,100942.08
2019-01-05T22:07:02.152Z,100944.12
2019-01-05T22:09:47.775Z,100945.48
2019-01-05T22:12:37.176Z,100944.23
2019-01-05T22:15:26.615Z,100946.33
2019-01-05T22:18:14.591Z,100946.78
2019-01-05T22:21:02.733Z,100955.06
2019-01-05T22:23:55.155Z,100951.83
2019-01-05T22:26:43.303Z,100953.98
2019-01-05T22:29:31.730Z,100957.59
2019-01-05T22:32:17.010Z,100957.86
2019-01-05T22:35:09.343Z,100961.59
2019-01-05T22:38:01.599Z,100957.45
2019-01-05T22:40:49.508Z,100951.38
2019-01-05T22:43:56.896Z,100958.63
2019-01-05T22:46:55.642Z,100958.89
2019-01-05T22:49:51.024Z,100956.92
2019-01-05T22:52:55.539Z,100953.42
2019-01-05T22:55:47.097Z,100953.54
2019-01-05T22:58:45.971Z,100955.86
2019-01-05T23:01:38.766Z,100953.46
2019-01-05T23:04:20.837Z,100950.05
2019-01-05T23:07:06.620Z,100951.87
2019-01-05T23:09:59.028Z,100949.70
2019-01-05T23:12:47.734Z,100952.78
2019-01-05T23:15:38.138Z,100952.94
2019-01-05T23:18:36.891Z,100962.47
2019-01-05T23:21:25.095Z,100963.56
2019-01-05T23:24:14.741Z,100958.21
2019-01-05T23:27:04.166Z,100955.02
2019-01-05T23:29:53.402Z,100954.48
2019-01-05T23:32:52.202Z,100955.70
2019-01-05T23:35:40.318Z,100954.80
2019-01-05T23:38:28.140Z,100961.89
2019-01-05T23:41:26.438Z,100957.30
2019-01-05T23:44:31.065Z,100958.41
2019-01-05T23:47:20.493Z,100956.35
2019-01-05T23:50:08.939Z,100955.33
2019-01-05T23:52:58.837Z,100950.44
2019-01-05T23:55:57.174Z,100946.78
2019-01-05T23:58:46.093Z,100949.33
